Absaraka, North Dakota
Current Conditions -  °F | °C
As of 3:53 PM on Wednesday 28 Jan 2015 (Local Time) from KFAR Reporting Station
Haze Haze  
Wind Chill:   Ceiling: 800
Heat Index:   Visibility: 4mi
Dew Point:   Wind: 6mph
Humidity: 86%   Direction: 220°SW
Pressure: 29.79"   Gusts: NA
Location:  46.98°N, 97.39°W
Report Text: KFAR 282153Z 22005KT 4SM BR OVC008 02/00 A2979 RMK AO2 SLP097 T00220000
Loading
Personal Weather Stations






























Interactive Weather Map New forecast layout! Learn more

10-Day Weather Forecast

Advertisements
Track Severe Weather on mobile